Time;durP1;ratioP1;P1;durP2;ratioP2;P2;SDS_P1;SDS_P2;PMS_P1;PMS_P2;Temp;Humidity;BMP_temperature;BMP_pressure;BME280_temperature;BME280_humidity;BME280_pressure;Samples;Min_cycle;Max_cycle;Signal;HPM_P1;HPM_P2
2021/12/17 00:02:53;;;;;;;0.00;0.00;;;;;;;;;;6272544;22;20004;-64
2021/12/17 00:05:02;;;;;;;0.10;0.10;;;;;;;;;;6272449;22;20083;-64
2021/12/17 00:07:27;;;;;;;2.63;2.63;;;;;;;;;;6272630;22;19996;-64
2021/12/17 00:09:54;;;;;;;0.00;0.00;;;;;;;;;;6272843;22;20006;-64
2021/12/17 00:12:20;;;;;;;0.00;0.00;;;;;;;;;;6271700;22;19992;-65
2021/12/17 00:14:48;;;;;;;5.25;5.05;;;;;;;;;;6272672;22;20007;-64
2021/12/17 00:17:18;;;;;;;0.00;0.00;;;;;;;;;;6271714;22;20079;-64
2021/12/17 00:20:31;;;;;;;1.00;0.52;;;;;;;;;;6273062;22;19999;-63
2021/12/17 00:49:32;;;;;;;0.00;0.00;;;;;;;;;;6272285;22;20023;-67
2021/12/17 00:51:59;;;;;;;0.00;0.00;;;;;;;;;;6271856;22;19999;-67
2021/12/17 00:54:33;;;;;;;0.00;0.00;;;;;;;;;;6272406;22;20008;-67
2021/12/17 00:57:04;;;;;;;0.00;0.00;;;;;;;;;;6272112;22;20024;-67
2021/12/17 00:59:30;;;;;;;0.00;0.00;;;;;;;;;;6271043;22;20421;-67
2021/12/17 01:01:57;;;;;;;0.70;0.70;;;;;;;;;;6271797;22;20007;-67
2021/12/17 01:04:22;;;;;;;4.40;4.05;;;;;;;;;;6272100;22;20000;-67
2021/12/17 01:06:48;;;;;;;0.20;0.20;;;;;;;;;;6272160;22;20075;-67
2021/12/17 01:09:16;;;;;;;1.35;1.35;;;;;;;;;;6270987;22;19999;-66
2021/12/17 01:11:41;;;;;;;1.17;1.17;;;;;;;;;;6272615;22;19999;-66
2021/12/17 01:14:06;;;;;;;0.00;0.00;;;;;;;;;;6271798;22;20004;-66
2021/12/17 01:16:32;;;;;;;0.00;0.00;;;;;;;;;;6272526;22;20006;-67
2021/12/17 01:42:17;;;;;;;0.00;0.00;;;;;;;;;;6284468;22;20003;-67
2021/12/17 01:44:43;;;;;;;1.65;1.48;;;;;;;;;;6274311;22;19996;-68
2021/12/17 01:47:10;;;;;;;0.00;0.00;;;;;;;;;;6273437;22;19996;-67
2021/12/17 02:00:31;;;;;;;0.10;0.10;;;;;;;;;;6272312;22;20016;-67
2021/12/17 02:02:58;;;;;;;0.20;0.20;;;;;;;;;;6274676;22;20031;-67
2021/12/17 02:05:23;;;;;;;0.00;0.00;;;;;;;;;;6273171;22;20582;-67
2021/12/17 02:07:52;;;;;;;1.08;1.08;;;;;;;;;;6274244;22;20004;-67
2021/12/17 02:28:50;;;;;;;0.35;0.35;;;;;;;;;;6272930;22;20037;-67
2021/12/17 02:31:25;;;;;;;0.00;0.00;;;;;;;;;;6272960;22;20000;-66
2021/12/17 02:33:51;;;;;;;0.00;0.00;;;;;;;;;;6273712;22;20003;-67
2021/12/17 02:36:21;;;;;;;0.00;0.00;;;;;;;;;;6272095;22;20000;-66
2021/12/17 02:38:46;;;;;;;0.00;0.00;;;;;;;;;;6273028;22;20498;-66
2021/12/17 02:46:39;;;;;;;0.55;0.55;;;;;;;;;;6272979;22;20073;-66
2021/12/17 02:49:06;;;;;;;0.00;0.00;;;;;;;;;;6273521;22;20405;-66
2021/12/17 02:51:31;;;;;;;0.00;0.00;;;;;;;;;;6272939;22;20436;-65
2021/12/17 02:53:58;;;;;;;0.00;0.00;;;;;;;;;;6272898;22;19992;-66
2021/12/17 02:56:23;;;;;;;0.00;0.00;;;;;;;;;;6244814;22;20530;-66
2021/12/17 02:58:49;;;;;;;0.00;0.00;;;;;;;;;;6272112;22;20019;-66
2021/12/17 03:01:15;;;;;;;0.00;0.00;;;;;;;;;;6272382;22;20014;-66
2021/12/17 03:03:42;;;;;;;0.00;0.00;;;;;;;;;;6273244;22;19996;-66
2021/12/17 03:06:08;;;;;;;0.00;0.00;;;;;;;;;;6273170;22;20489;-67
2021/12/17 03:08:33;;;;;;;0.00;0.00;;;;;;;;;;6272796;22;20015;-67
2021/12/17 03:10:59;;;;;;;0.38;0.38;;;;;;;;;;6272328;22;20702;-67
2021/12/17 03:13:25;;;;;;;1.75;1.75;;;;;;;;;;6272687;22;20010;-66
2021/12/17 03:15:59;;;;;;;0.00;0.00;;;;;;;;;;6272812;22;20425;-65
2021/12/17 03:23:52;;;;;;;0.00;0.00;;;;;;;;;;6272763;22;20011;-67
2021/12/17 03:26:21;;;;;;;0.00;0.00;;;;;;;;;;6270827;22;19996;-66
2021/12/17 03:28:48;;;;;;;0.00;0.00;;;;;;;;;;6272599;22;20032;-66
2021/12/17 03:31:14;;;;;;;0.00;0.00;;;;;;;;;;6271985;22;20000;-66
2021/12/17 03:33:41;;;;;;;0.00;0.00;;;;;;;;;;6273213;22;20014;-66
2021/12/17 03:36:07;;;;;;;0.00;0.00;;;;;;;;;;6272677;22;20012;-66
2021/12/17 03:38:32;;;;;;;0.00;0.00;;;;;;;;;;6272516;22;20458;-67
2021/12/17 03:41:10;;;;;;;1.00;1.00;;;;;;;;;;6272536;22;20053;-66
2021/12/17 03:43:36;;;;;;;0.00;0.00;;;;;;;;;;6272121;22;19992;-66
2021/12/17 03:46:01;;;;;;;0.00;0.00;;;;;;;;;;6272483;22;20000;-65
2021/12/17 03:48:29;;;;;;;0.00;0.00;;;;;;;;;;6271488;22;20356;-66
2021/12/17 03:50:55;;;;;;;0.00;0.00;;;;;;;;;;6272491;22;20334;-66
2021/12/17 03:53:20;;;;;;;0.05;0.05;;;;;;;;;;6271785;22;19992;-66
2021/12/17 03:55:45;;;;;;;1.58;1.48;;;;;;;;;;6272108;22;20021;-66
2021/12/17 03:58:10;;;;;;;0.00;0.00;;;;;;;;;;6272800;22;20414;-66
2021/12/17 04:00:36;;;;;;;4.43;4.07;;;;;;;;;;6272260;22;19999;-67
2021/12/17 04:03:02;;;;;;;0.00;0.00;;;;;;;;;;6272980;22;20003;-66
2021/12/17 04:05:28;;;;;;;1.08;1.08;;;;;;;;;;6272506;22;19995;-67
2021/12/17 04:07:53;;;;;;;0.00;0.00;;;;;;;;;;6273245;22;20283;-67
2021/12/17 04:10:19;;;;;;;0.00;0.00;;;;;;;;;;6272183;22;20058;-66
2021/12/17 04:15:14;;;;;;;0.08;0.08;;;;;;;;;;6273270;22;20003;-66
2021/12/17 04:17:44;;;;;;;0.00;0.00;;;;;;;;;;6272184;22;20006;-66
2021/12/17 04:20:10;;;;;;;0.00;0.00;;;;;;;;;;6273045;22;20006;-66
2021/12/17 04:22:35;;;;;;;0.00;0.00;;;;;;;;;;6272440;22;20106;-65
2021/12/17 04:25:01;;;;;;;0.00;0.00;;;;;;;;;;6271793;22;20042;-66
2021/12/17 04:27:26;;;;;;;0.00;0.00;;;;;;;;;;6272293;22;20006;-66
2021/12/17 04:29:52;;;;;;;0.00;0.00;;;;;;;;;;6272916;22;20027;-65
2021/12/17 04:32:17;;;;;;;0.00;0.00;;;;;;;;;;6272173;22;20000;-66
2021/12/17 04:34:43;;;;;;;0.00;0.00;;;;;;;;;;6272873;22;20368;-66
2021/12/17 04:37:08;;;;;;;0.00;0.00;;;;;;;;;;6272617;22;20329;-65
2021/12/17 04:39:34;;;;;;;0.00;0.00;;;;;;;;;;6272214;22;20078;-65
2021/12/17 04:42:05;;;;;;;0.00;0.00;;;;;;;;;;6272043;22;20000;-65
2021/12/17 04:44:34;;;;;;;0.10;0.10;;;;;;;;;;6271788;22;20003;-66
2021/12/17 04:57:52;;;;;;;0.00;0.00;;;;;;;;;;6272242;22;20019;-64
2021/12/17 05:00:23;;;;;;;0.00;0.00;;;;;;;;;;6272578;22;19995;-64
2021/12/17 05:02:51;;;;;;;0.00;0.00;;;;;;;;;;6272759;22;20332;-65
2021/12/17 05:05:18;;;;;;;0.05;0.03;;;;;;;;;;6272424;22;19999;-65
2021/12/17 05:07:49;;;;;;;0.00;0.00;;;;;;;;;;6272456;22;19991;-65
2021/12/17 05:18:26;;;;;;;0.00;0.00;;;;;;;;;;6272466;22;20057;-66
2021/12/17 05:20:58;;;;;;;1.70;1.60;;;;;;;;;;6272303;22;20008;-66
2021/12/17 05:23:29;;;;;;;1.90;1.80;;;;;;;;;;6271834;22;20429;-66
2021/12/17 05:25:54;;;;;;;0.20;0.20;;;;;;;;;;6245203;22;20042;-66
2021/12/17 05:28:19;;;;;;;4.55;0.43;;;;;;;;;;6271844;22;20031;-66
2021/12/17 05:30:47;;;;;;;1.67;1.67;;;;;;;;;;6272459;22;19992;-66
2021/12/17 05:33:13;;;;;;;1.95;1.85;;;;;;;;;;6272561;22;20647;-66
2021/12/17 05:35:38;;;;;;;0.35;0.35;;;;;;;;;;6271618;22;19999;-65
2021/12/17 05:38:06;;;;;;;0.00;0.00;;;;;;;;;;6272267;22;20000;-66
2021/12/17 05:40:32;;;;;;;0.10;0.10;;;;;;;;;;6271547;22;19996;-65
2021/12/17 05:43:00;;;;;;;3.50;1.60;;;;;;;;;;6272109;22;20049;-64
2021/12/17 05:45:34;;;;;;;1.48;1.48;;;;;;;;;;6271728;22;19999;-65
2021/12/17 05:48:09;;;;;;;0.80;0.80;;;;;;;;;;6272383;22;20704;-65
2021/12/17 05:50:35;;;;;;;0.52;0.52;;;;;;;;;;6271389;22;20652;-65
2021/12/17 05:53:01;;;;;;;0.00;0.00;;;;;;;;;;6271968;22;20003;-66
2021/12/17 05:55:26;;;;;;;0.00;0.00;;;;;;;;;;6271474;22;20004;-66
2021/12/17 05:57:52;;;;;;;0.55;0.55;;;;;;;;;;6272045;22;20041;-65
2021/12/17 06:00:18;;;;;;;0.00;0.00;;;;;;;;;;6272333;22;20002;-65
2021/12/17 06:02:44;;;;;;;0.43;0.35;;;;;;;;;;6271551;22;20008;-67
2021/12/17 06:05:09;;;;;;;0.00;0.00;;;;;;;;;;6272316;22;20045;-66
2021/12/17 06:07:34;;;;;;;0.00;0.00;;;;;;;;;;6271212;22;20026;-66
2021/12/17 06:10:03;;;;;;;0.00;0.00;;;;;;;;;;6272158;22;20002;-66
2021/12/17 06:12:28;;;;;;;0.00;0.00;;;;;;;;;;6271507;22;20401;-66
2021/12/17 06:14:53;;;;;;;0.00;0.00;;;;;;;;;;6272413;22;20007;-66
2021/12/17 06:17:19;;;;;;;0.00;0.00;;;;;;;;;;6245055;22;20039;-66
2021/12/17 06:19:44;;;;;;;0.25;0.25;;;;;;;;;;6270766;22;20004;-66
2021/12/17 06:22:09;;;;;;;0.00;0.00;;;;;;;;;;6272305;22;20033;-66
2021/12/17 06:24:34;;;;;;;0.00;0.00;;;;;;;;;;6273534;22;20000;-65
2021/12/17 06:26:59;;;;;;;0.00;0.00;;;;;;;;;;6273630;22;19992;-65
2021/12/17 06:29:25;;;;;;;0.00;0.00;;;;;;;;;;6272919;22;20004;-65
2021/12/17 06:31:50;;;;;;;0.43;0.43;;;;;;;;;;6273597;22;20007;-62
2021/12/17 06:34:15;;;;;;;0.00;0.00;;;;;;;;;;6274026;22;19999;-61
2021/12/17 06:36:40;;;;;;;0.00;0.00;;;;;;;;;;6273808;22;20073;-62
2021/12/17 06:39:06;;;;;;;0.00;0.00;;;;;;;;;;6274915;22;20006;-63
2021/12/17 06:41:31;;;;;;;0.00;0.00;;;;;;;;;;6273152;22;20042;-61
2021/12/17 06:43:58;;;;;;;0.00;0.00;;;;;;;;;;6274072;22;20060;-62
2021/12/17 06:46:47;;;;;;;0.00;0.00;;;;;;;;;;6274254;22;20409;-62
2021/12/17 07:10:30;;;;;;;0.52;0.10;;;;;;;;;;6273333;22;20118;-62
2021/12/17 07:21:19;;;;;;;4.25;2.28;;;;;;;;;;6286654;22;20342;-61
2021/12/17 07:34:43;;;;;;;0.47;0.47;;;;;;;;;;6281672;22;20326;-62
2021/12/17 07:38:37;;;;;;;0.47;0.47;;;;;;;;;;6270124;22;20000;-63
2021/12/17 07:39:41;;;;;;;0.00;0.00;;;;;;;;;;6272606;22;20003;-62
2021/12/17 07:42:07;;;;;;;0.35;0.35;;;;;;;;;;6272761;22;19995;-62
2021/12/17 07:44:32;;;;;;;0.00;0.00;;;;;;;;;;6272336;22;20452;-62
2021/12/17 07:46:57;;;;;;;0.00;0.00;;;;;;;;;;6272987;22;20031;-62
2021/12/17 07:49:23;;;;;;;0.00;0.00;;;;;;;;;;6273409;22;19991;-63
2021/12/17 07:51:48;;;;;;;0.55;0.55;;;;;;;;;;6272574;22;19996;-61
2021/12/17 07:54:13;;;;;;;9.10;8.55;;;;;;;;;;6273084;22;20051;-63
2021/12/17 07:56:39;;;;;;;0.00;0.00;;;;;;;;;;6272120;22;20122;-62
2021/12/17 07:59:05;;;;;;;0.00;0.00;;;;;;;;;;6272994;22;20015;-63
2021/12/17 08:01:30;;;;;;;0.00;0.00;;;;;;;;;;6245539;22;20425;-63
2021/12/17 08:03:55;;;;;;;0.20;0.20;;;;;;;;;;6272958;22;20639;-62
2021/12/17 08:06:21;;;;;;;0.00;0.00;;;;;;;;;;6273378;22;20054;-62
2021/12/17 08:08:46;;;;;;;0.00;0.00;;;;;;;;;;6272706;22;20328;-61
2021/12/17 08:11:11;;;;;;;0.00;0.00;;;;;;;;;;6273458;22;20007;-62
2021/12/17 08:13:36;;;;;;;9.88;1.35;;;;;;;;;;6245499;22;20133;-63
2021/12/17 08:19:06;;;;;;;2.55;1.67;;;;;;;;;;6273029;22;20049;-62
2021/12/17 08:32:07;;;;;;;0.00;0.00;;;;;;;;;;6275708;22;20032;-63
2021/12/17 08:34:33;;;;;;;0.00;0.00;;;;;;;;;;6276315;22;20425;-63
2021/12/17 08:36:58;;;;;;;0.00;0.00;;;;;;;;;;6273284;22;20794;-63
2021/12/17 08:39:25;;;;;;;0.00;0.00;;;;;;;;;;6273557;22;20003;-63
2021/12/17 08:41:53;;;;;;;0.00;0.00;;;;;;;;;;6268894;22;20058;-63
2021/12/17 08:44:19;;;;;;;0.00;0.00;;;;;;;;;;6271310;22;20084;-60
2021/12/17 08:46:45;;;;;;;0.82;0.63;;;;;;;;;;6218138;22;20056;-60
2021/12/17 08:49:11;;;;;;;1.95;1.20;;;;;;;;;;6272420;22;20034;-61
2021/12/17 08:51:37;;;;;;;0.10;0.10;;;;;;;;;;6270757;22;20128;-60
2021/12/17 08:54:03;;;;;;;2.45;0.43;;;;;;;;;;6272020;22;20016;-61
2021/12/17 08:56:29;;;;;;;0.82;0.82;;;;;;;;;;6272106;22;20358;-60
2021/12/17 08:58:55;;;;;;;0.13;0.13;;;;;;;;;;6271323;22;20054;-61
2021/12/17 09:01:20;;;;;;;0.00;0.00;;;;;;;;;;6272125;22;20004;-61
2021/12/17 09:03:47;;;;;;;0.00;0.00;;;;;;;;;;6271180;22;20099;-61
2021/12/17 09:06:13;;;;;;;0.68;0.68;;;;;;;;;;6272190;22;19996;-61
2021/12/17 09:08:38;;;;;;;0.10;0.10;;;;;;;;;;6271660;22;19999;-61
2021/12/17 09:11:03;;;;;;;0.30;0.30;;;;;;;;;;6272320;22;19992;-60
2021/12/17 09:13:28;;;;;;;0.00;0.00;;;;;;;;;;6271974;22;20004;-60
2021/12/17 09:15:58;;;;;;;0.00;0.00;;;;;;;;;;6271054;22;20002;-60
2021/12/17 09:18:24;;;;;;;0.00;0.00;;;;;;;;;;6272781;22;20046;-59
2021/12/17 09:20:50;;;;;;;0.35;0.10;;;;;;;;;;6271685;22;20003;-59
2021/12/17 09:23:15;;;;;;;0.47;0.47;;;;;;;;;;6245559;22;20414;-60
2021/12/17 09:25:40;;;;;;;0.00;0.00;;;;;;;;;;6271947;22;19992;-60
2021/12/17 09:28:05;;;;;;;0.00;0.00;;;;;;;;;;6272498;22;20422;-60
2021/12/17 09:30:31;;;;;;;0.00;0.00;;;;;;;;;;6272353;22;20000;-59
2021/12/17 09:32:57;;;;;;;0.80;0.75;;;;;;;;;;6271826;22;20030;-60
2021/12/17 09:35:24;;;;;;;0.00;0.00;;;;;;;;;;6245346;22;20011;-59
2021/12/17 09:37:50;;;;;;;0.00;0.00;;;;;;;;;;6271671;22;20004;-60
2021/12/17 09:40:15;;;;;;;0.00;0.00;;;;;;;;;;6272013;22;20000;-60
2021/12/17 09:42:42;;;;;;;0.30;0.30;;;;;;;;;;6270996;22;20027;-59
2021/12/17 09:45:08;;;;;;;0.00;0.00;;;;;;;;;;6244978;22;20000;-60
2021/12/17 09:47:33;;;;;;;0.00;0.00;;;;;;;;;;6272857;22;20321;-61
2021/12/17 09:49:59;;;;;;;0.90;0.90;;;;;;;;;;6271696;22;20461;-61
2021/12/17 09:52:24;;;;;;;0.00;0.00;;;;;;;;;;6272241;22;20071;-60
2021/12/17 09:54:50;;;;;;;0.00;0.00;;;;;;;;;;6272261;22;20075;-60
2021/12/17 09:57:17;;;;;;;0.00;0.00;;;;;;;;;;6245329;22;19995;-60
2021/12/17 09:59:42;;;;;;;0.38;0.38;;;;;;;;;;6273304;22;20012;-61
2021/12/17 10:02:08;;;;;;;0.00;0.00;;;;;;;;;;6274152;22;20007;-61
2021/12/17 10:04:33;;;;;;;1.70;1.60;;;;;;;;;;6274590;22;20125;-60
2021/12/17 10:07:17;;;;;;;0.85;0.52;;;;;;;;;;6273252;22;20000;-61
2021/12/17 10:10:00;;;;;;;0.00;0.00;;;;;;;;;;6272872;22;20041;-61
2021/12/17 10:12:31;;;;;;;0.75;0.75;;;;;;;;;;6274380;22;20440;-62
2021/12/17 10:15:06;;;;;;;0.00;0.00;;;;;;;;;;6273664;22;20035;-62
2021/12/17 10:17:32;;;;;;;0.00;0.00;;;;;;;;;;6274214;22;20443;-60
2021/12/17 10:19:57;;;;;;;0.00;0.00;;;;;;;;;;6272819;22;20004;-62
2021/12/17 10:22:23;;;;;;;0.08;0.08;;;;;;;;;;6273804;22;20024;-62
2021/12/17 10:25:03;;;;;;;0.00;0.00;;;;;;;;;;6273296;22;19996;-61
2021/12/17 10:27:30;;;;;;;0.00;0.00;;;;;;;;;;6273658;22;20027;-61
2021/12/17 10:29:57;;;;;;;0.05;0.05;;;;;;;;;;6273416;22;20409;-60
2021/12/17 10:32:23;;;;;;;0.35;0.22;;;;;;;;;;6274132;22;19999;-61
2021/12/17 10:34:58;;;;;;;0.00;0.00;;;;;;;;;;6273053;22;20003;-61
2021/12/17 10:37:42;;;;;;;0.00;0.00;;;;;;;;;;6273520;22;19996;-62
2021/12/17 10:40:14;;;;;;;0.00;0.00;;;;;;;;;;6274032;22;20027;-61
2021/12/17 10:42:41;;;;;;;0.00;0.00;;;;;;;;;;6272495;22;20007;-62
2021/12/17 10:45:12;;;;;;;0.00;0.00;;;;;;;;;;6273762;22;20351;-61
2021/12/17 10:47:38;;;;;;;0.00;0.00;;;;;;;;;;6273690;22;20006;-61
2021/12/17 10:50:05;;;;;;;0.57;0.57;;;;;;;;;;6273779;22;19999;-60
2021/12/17 10:52:40;;;;;;;0.00;0.00;;;;;;;;;;6273857;22;20006;-60
2021/12/17 10:55:14;;;;;;;2.20;2.10;;;;;;;;;;6274246;22;20018;-61
2021/12/17 10:57:39;;;;;;;0.00;0.00;;;;;;;;;;6272572;22;20003;-62
2021/12/17 11:00:06;;;;;;;0.00;0.00;;;;;;;;;;6273625;22;20070;-61
2021/12/17 11:02:34;;;;;;;0.00;0.00;;;;;;;;;;6273902;22;20773;-60
2021/12/17 11:05:12;;;;;;;0.40;0.40;;;;;;;;;;6272856;22;19999;-63
2021/12/17 11:07:38;;;;;;;1.48;1.38;;;;;;;;;;6272745;22;20037;-62
2021/12/17 11:10:04;;;;;;;17.65;3.58;;;;;;;;;;6272938;22;20406;-62
2021/12/17 11:12:30;;;;;;;7.88;1.70;;;;;;;;;;6272977;22;20007;-61
2021/12/17 11:15:08;;;;;;;0.75;0.75;;;;;;;;;;6272407;22;20074;-62
2021/12/17 11:17:33;;;;;;;1.27;0.75;;;;;;;;;;6272811;22;20026;-62
2021/12/17 11:20:01;;;;;;;0.10;0.10;;;;;;;;;;6273180;22;20008;-61
2021/12/17 11:22:29;;;;;;;0.00;0.00;;;;;;;;;;6273212;22;20027;-61
2021/12/17 11:24:54;;;;;;;0.65;0.65;;;;;;;;;;6273926;22;20003;-61
2021/12/17 11:27:23;;;;;;;0.00;0.00;;;;;;;;;;6273754;22;19991;-62
2021/12/17 11:29:48;;;;;;;4.65;4.25;;;;;;;;;;6245892;22;20341;-62
2021/12/17 11:32:14;;;;;;;0.05;0.05;;;;;;;;;;6273169;22;20000;-60
2021/12/17 11:34:40;;;;;;;0.55;0.55;;;;;;;;;;6272119;22;20015;-62
2021/12/17 11:37:07;;;;;;;2.58;1.55;;;;;;;;;;6270581;22;20007;-61
2021/12/17 11:39:36;;;;;;;1.95;1.77;;;;;;;;;;6272326;22;20050;-60
2021/12/17 11:42:02;;;;;;;;;;;;;;;;;;6272171;22;20046;-62
2021/12/17 11:44:39;;;;;;;0.22;0.22;;;;;;;;;;6272701;22;19903;-61
2021/12/17 11:47:06;;;;;;;0.15;0.15;;;;;;;;;;6272192;22;20061;-60
2021/12/17 11:49:52;;;;;;;0.80;0.80;;;;;;;;;;6272705;22;20003;-60
2021/12/17 11:52:38;;;;;;;0.00;0.00;;;;;;;;;;6272329;22;20000;-62
2021/12/17 11:55:21;;;;;;;0.25;0.25;;;;;;;;;;6272302;22;20078;-62
2021/12/17 11:57:48;;;;;;;0.00;0.00;;;;;;;;;;6271325;22;20085;-62
2021/12/17 12:00:14;;;;;;;0.00;0.00;;;;;;;;;;6272807;22;20075;-62
2021/12/17 12:02:46;;;;;;;0.00;0.00;;;;;;;;;;6245586;22;20020;-61
2021/12/17 12:05:31;;;;;;;2.55;1.50;;;;;;;;;;6272522;22;20055;-62
2021/12/17 12:08:16;;;;;;;0.00;0.00;;;;;;;;;;6271728;22;20010;-63
2021/12/17 12:10:41;;;;;;;0.00;0.00;;;;;;;;;;6271953;22;20008;-60
2021/12/17 12:13:07;;;;;;;0.00;0.00;;;;;;;;;;6271851;22;20406;-61
2021/12/17 12:15:33;;;;;;;0.00;0.00;;;;;;;;;;6272466;22;20433;-60
2021/12/17 12:17:58;;;;;;;0.45;0.45;;;;;;;;;;6271491;22;20003;-60
2021/12/17 12:20:42;;;;;;;0.00;0.00;;;;;;;;;;6272091;22;20072;-61
2021/12/17 12:23:19;;;;;;;0.20;0.20;;;;;;;;;;6271531;22;20000;-60
2021/12/17 12:25:46;;;;;;;0.00;0.00;;;;;;;;;;6271522;22;20003;-60
2021/12/17 12:28:13;;;;;;;0.00;0.00;;;;;;;;;;6271424;22;20070;-60
2021/12/17 12:30:39;;;;;;;0.00;0.00;;;;;;;;;;6271385;22;20008;-61
2021/12/17 12:33:05;;;;;;;0.08;0.08;;;;;;;;;;6270294;22;20098;-62
2021/12/17 12:35:31;;;;;;;0.00;0.00;;;;;;;;;;6244011;22;20065;-61
2021/12/17 12:38:17;;;;;;;0.00;0.00;;;;;;;;;;6271080;22;20004;-63
2021/12/17 12:40:50;;;;;;;0.00;0.00;;;;;;;;;;6271460;22;20003;-61
2021/12/17 12:43:35;;;;;;;0.00;0.00;;;;;;;;;;6270968;22;20090;-61
2021/12/17 12:46:00;;;;;;;0.00;0.00;;;;;;;;;;6270112;22;20000;-61
2021/12/17 12:48:33;;;;;;;0.15;0.15;;;;;;;;;;6271042;22;20002;-61
2021/12/17 12:51:17;;;;;;;0.00;0.00;;;;;;;;;;6271185;22;19991;-62
2021/12/17 12:53:46;;;;;;;0.00;0.00;;;;;;;;;;6271525;22;19996;-65
2021/12/17 12:56:18;;;;;;;0.00;0.00;;;;;;;;;;6270915;22;20030;-61
2021/12/17 12:58:47;;;;;;;0.00;0.00;;;;;;;;;;6270073;22;20007;-61
2021/12/17 13:01:13;;;;;;;0.00;0.00;;;;;;;;;;6243869;22;20004;-62
2021/12/17 13:03:39;;;;;;;0.40;0.40;;;;;;;;;;6271708;22;20061;-61
2021/12/17 13:06:06;;;;;;;1.15;1.15;;;;;;;;;;6271390;22;20456;-61
2021/12/17 13:08:32;;;;;;;0.00;0.00;;;;;;;;;;6271319;22;20401;-63
2021/12/17 13:10:59;;;;;;;0.00;0.00;;;;;;;;;;6271137;22;20005;-62
2021/12/17 13:16:16;;;;;;;0.00;0.00;;;;;;;;;;6271316;22;20015;-62
2021/12/17 13:23:49;;;;;;;0.00;0.00;;;;;;;;;;6270883;22;20000;-63
2021/12/17 13:26:15;;;;;;;0.00;0.00;;;;;;;;;;6269655;22;20003;-64
2021/12/17 13:28:45;;;;;;;0.00;0.00;;;;;;;;;;6270227;22;20507;-63
2021/12/17 13:31:10;;;;;;;0.00;0.00;;;;;;;;;;6271907;22;20003;-62
2021/12/17 13:33:37;;;;;;;0.00;0.00;;;;;;;;;;6273708;22;20130;-64
2021/12/17 13:36:03;;;;;;;0.00;0.00;;;;;;;;;;6272900;22;19992;-63
2021/12/17 13:38:32;;;;;;;0.00;0.00;;;;;;;;;;6246806;22;19999;-63
2021/12/17 13:40:59;;;;;;;0.00;0.00;;;;;;;;;;6245963;22;20422;-63
2021/12/17 13:43:28;;;;;;;0.00;0.00;;;;;;;;;;6246629;22;20015;-63
2021/12/17 13:45:53;;;;;;;0.00;0.00;;;;;;;;;;6272920;22;19996;-63
2021/12/17 13:48:19;;;;;;;0.00;0.00;;;;;;;;;;6247191;22;20056;-63
2021/12/17 13:50:46;;;;;;;0.00;0.00;;;;;;;;;;6246747;22;20007;-63
2021/12/17 13:53:12;;;;;;;0.00;0.00;;;;;;;;;;6274234;22;20004;-63
2021/12/17 13:55:41;;;;;;;0.00;0.00;;;;;;;;;;6272964;22;20005;-64
2021/12/17 13:58:14;;;;;;;0.00;0.00;;;;;;;;;;6245349;22;20073;-63
2021/12/17 14:00:40;;;;;;;1.45;1.33;;;;;;;;;;6272680;22;20000;-63
2021/12/17 14:03:09;;;;;;;0.08;0.08;;;;;;;;;;6273214;22;20410;-64
2021/12/17 14:05:41;;;;;;;0.70;0.32;;;;;;;;;;6273575;22;20634;-64
2021/12/17 14:08:10;;;;;;;0.00;0.00;;;;;;;;;;6273612;22;20000;-63
2021/12/17 14:10:35;;;;;;;0.00;0.00;;;;;;;;;;6273082;22;19991;-64
2021/12/17 14:13:05;;;;;;;0.00;0.00;;;;;;;;;;6272959;22;20003;-63
2021/12/17 14:15:31;;;;;;;0.00;0.00;;;;;;;;;;6273935;22;20413;-63
2021/12/17 14:18:01;;;;;;;1.30;1.27;;;;;;;;;;6272786;22;20027;-64
2021/12/17 14:20:26;;;;;;;;;;;;;;;;;;6273356;22;20009;-65
2021/12/17 14:22:53;;;;;;;0.00;0.00;;;;;;;;;;6272178;22;19903;-65
2021/12/17 14:25:33;;;;;;;0.00;0.00;;;;;;;;;;6273474;22;20219;-64
2021/12/17 14:28:00;;;;;;;0.00;0.00;;;;;;;;;;6272669;22;20329;-63
2021/12/17 14:30:33;;;;;;;0.00;0.00;;;;;;;;;;6273732;22;20099;-65
2021/12/17 14:32:59;;;;;;;0.10;0.10;;;;;;;;;;6272945;22;20006;-65
2021/12/17 14:35:42;;;;;;;0.00;0.00;;;;;;;;;;6271153;22;20430;-65
2021/12/17 14:38:08;;;;;;;0.00;0.00;;;;;;;;;;6272290;22;20006;-64
2021/12/17 14:43:25;;;;;;;0.10;0.10;;;;;;;;;;6282412;22;20011;-63
2021/12/17 14:46:07;;;;;;;0.00;0.00;;;;;;;;;;6271805;22;20026;-62
2021/12/17 14:48:40;;;;;;;0.00;0.00;;;;;;;;;;6273176;22;20045;-63
2021/12/17 15:00:24;;;;;;;0.00;0.00;;;;;;;;;;6271957;22;20069;-64
2021/12/17 15:02:38;;;;;;;3.15;3.00;;;;;;;;;;6254339;22;20011;-64
2021/12/17 15:04:55;;;;;;;0.00;0.00;;;;;;;;;;6271313;22;19996;-64
2021/12/17 15:07:23;;;;;;;0.00;0.00;;;;;;;;;;6272439;22;20003;-65
2021/12/17 15:09:48;;;;;;;0.10;0.10;;;;;;;;;;6272164;22;20318;-64
2021/12/17 15:14:51;;;;;;;0.00;0.00;;;;;;;;;;6272519;22;20082;-65
2021/12/17 15:17:16;;;;;;;0.00;0.00;;;;;;;;;;6271724;22;20046;-64
2021/12/17 15:19:42;;;;;;;0.00;0.00;;;;;;;;;;6271365;22;20366;-65
2021/12/17 15:22:07;;;;;;;0.00;0.00;;;;;;;;;;6271099;22;20038;-64
2021/12/17 15:24:32;;;;;;;0.00;0.00;;;;;;;;;;6270520;22;20042;-64
2021/12/17 15:26:57;;;;;;;0.00;0.00;;;;;;;;;;6269369;22;19996;-63
2021/12/17 15:29:24;;;;;;;0.00;0.00;;;;;;;;;;6270316;22;20078;-63
2021/12/17 15:31:51;;;;;;;0.00;0.00;;;;;;;;;;6271335;22;20014;-63
2021/12/17 15:34:16;;;;;;;0.52;0.52;;;;;;;;;;6270868;22;19999;-64
2021/12/17 15:36:42;;;;;;;0.00;0.00;;;;;;;;;;6272762;22;19996;-63
2021/12/17 15:39:07;;;;;;;0.00;0.00;;;;;;;;;;6271073;22;20008;-64
2021/12/17 15:41:32;;;;;;;0.00;0.00;;;;;;;;;;6270117;22;19996;-65
2021/12/17 15:43:57;;;;;;;0.00;0.00;;;;;;;;;;6270400;22;20003;-65
2021/12/17 15:46:23;;;;;;;1.13;1.13;;;;;;;;;;6272322;22;20030;-65
2021/12/17 15:48:48;;;;;;;0.20;0.20;;;;;;;;;;6270034;22;20041;-65
2021/12/17 15:51:13;;;;;;;0.00;0.00;;;;;;;;;;6270407;22;20392;-64
2021/12/17 15:53:38;;;;;;;0.00;0.00;;;;;;;;;;6270205;22;20083;-66
2021/12/17 15:56:04;;;;;;;0.00;0.00;;;;;;;;;;6269333;22;20027;-64
2021/12/17 15:58:29;;;;;;;0.00;0.00;;;;;;;;;;6271302;22;20047;-64
2021/12/17 16:00:55;;;;;;;1.10;1.10;;;;;;;;;;6270758;22;20360;-64
2021/12/17 16:03:27;;;;;;;0.00;0.00;;;;;;;;;;6271454;22;20357;-65
2021/12/17 16:05:52;;;;;;;0.00;0.00;;;;;;;;;;6270174;22;20002;-64
2021/12/17 16:08:17;;;;;;;0.00;0.00;;;;;;;;;;6271450;22;20019;-64
2021/12/17 16:11:12;;;;;;;0.00;0.00;;;;;;;;;;6271910;22;20440;-64
2021/12/17 16:21:57;;;;;;;0.00;0.00;;;;;;;;;;6188665;22;20011;-63
2021/12/17 16:24:22;;;;;;;0.20;0.20;;;;;;;;;;6270589;22;20063;-63
2021/12/17 16:26:48;;;;;;;0.00;0.00;;;;;;;;;;6271703;22;19992;-62
2021/12/17 16:29:17;;;;;;;3.10;3.00;;;;;;;;;;6269575;22;20004;-70
2021/12/17 16:31:42;;;;;;;0.00;0.00;;;;;;;;;;6271074;22;20004;-63
2021/12/17 16:34:08;;;;;;;0.30;0.30;;;;;;;;;;6270342;22;20625;-63
2021/12/17 16:36:34;;;;;;;0.00;0.00;;;;;;;;;;6271514;22;20007;-61
2021/12/17 16:39:00;;;;;;;0.00;0.00;;;;;;;;;;6270909;22;20004;-64
2021/12/17 16:41:26;;;;;;;0.00;0.00;;;;;;;;;;6271122;22;20004;-65
2021/12/17 16:43:59;;;;;;;0.00;0.00;;;;;;;;;;6270896;22;20698;-65
2021/12/17 16:47:01;;;;;;;0.00;0.00;;;;;;;;;;6271462;22;20026;-63
2021/12/17 16:49:11;;;;;;;0.00;0.00;;;;;;;;;;6267597;22;20000;-65
2021/12/17 16:51:37;;;;;;;0.00;0.00;;;;;;;;;;6271300;22;20026;-64
2021/12/17 16:54:02;;;;;;;0.60;0.60;;;;;;;;;;6269657;22;19999;-66
2021/12/17 16:56:27;;;;;;;0.00;0.00;;;;;;;;;;6270118;22;20019;-65
2021/12/17 16:58:54;;;;;;;0.00;0.00;;;;;;;;;;6268522;22;20029;-64
2021/12/17 17:01:20;;;;;;;0.35;0.35;;;;;;;;;;6241985;22;20090;-65
2021/12/17 17:03:45;;;;;;;0.00;0.00;;;;;;;;;;6271135;22;20019;-64
2021/12/17 17:06:11;;;;;;;0.00;0.00;;;;;;;;;;6270291;22;19996;-63
2021/12/17 17:08:37;;;;;;;0.00;0.00;;;;;;;;;;6270625;22;19999;-63
2021/12/17 17:11:04;;;;;;;0.10;0.10;;;;;;;;;;6269795;22;20417;-63
2021/12/17 17:13:33;;;;;;;0.00;0.00;;;;;;;;;;6270125;22;20012;-62
2021/12/17 17:16:04;;;;;;;0.10;0.10;;;;;;;;;;6270799;22;20022;-62
2021/12/17 17:18:33;;;;;;;0.65;0.57;;;;;;;;;;6271107;22;20045;-62
2021/12/17 17:21:28;;;;;;;0.00;0.00;;;;;;;;;;6271182;22;20397;-61
2021/12/17 17:23:53;;;;;;;0.40;0.40;;;;;;;;;;6211157;22;20388;-62
2021/12/17 17:26:18;;;;;;;0.00;0.00;;;;;;;;;;6269398;22;20087;-62
2021/12/17 17:28:46;;;;;;;0.00;0.00;;;;;;;;;;6269688;22;20000;-63
2021/12/17 17:31:11;;;;;;;0.00;0.00;;;;;;;;;;6270272;22;20014;-61
2021/12/17 17:33:45;;;;;;;0.00;0.00;;;;;;;;;;6269859;22;20000;-63
2021/12/17 17:36:10;;;;;;;0.00;0.00;;;;;;;;;;6269412;22;20455;-63
2021/12/17 17:38:36;;;;;;;0.00;0.00;;;;;;;;;;6270414;22;20007;-64
2021/12/17 17:41:01;;;;;;;0.00;0.00;;;;;;;;;;6270256;22;19995;-64
2021/12/17 17:43:26;;;;;;;0.00;0.00;;;;;;;;;;6269866;22;20003;-63
2021/12/17 17:45:51;;;;;;;0.00;0.00;;;;;;;;;;6270475;22;20579;-64
2021/12/17 17:48:17;;;;;;;0.10;0.10;;;;;;;;;;6269799;22;20003;-63
2021/12/17 17:50:42;;;;;;;0.73;0.73;;;;;;;;;;6270620;22;20010;-64
2021/12/17 17:53:09;;;;;;;0.43;0.43;;;;;;;;;;6268665;22;19999;-64
2021/12/17 17:55:38;;;;;;;0.00;0.00;;;;;;;;;;6243020;22;20077;-63
2021/12/17 17:58:04;;;;;;;0.00;0.00;;;;;;;;;;6268939;22;20398;-63
2021/12/17 18:00:29;;;;;;;1.50;1.40;;;;;;;;;;6270053;22;20015;-64
2021/12/17 18:02:55;;;;;;;0.00;0.00;;;;;;;;;;6270293;22;20007;-62
2021/12/17 18:05:21;;;;;;;0.47;0.47;;;;;;;;;;6270319;22;20435;-66